createdAt,value
2022-11-24T00:00:10.628Z,2.67
2022-11-24T00:01:43.500Z,2.80
2022-11-24T00:03:16.506Z,3.30
2022-11-24T00:04:49.288Z,3.15
2022-11-24T00:06:24.447Z,3.40
2022-11-24T00:07:57.200Z,3.83
2022-11-24T00:09:30.079Z,2.92
2022-11-24T00:11:07.670Z,3.20
2022-11-24T00:12:40.371Z,3.00
2022-11-24T00:14:13.390Z,2.67
2022-11-24T00:15:45.216Z,2.80
2022-11-24T00:17:18.158Z,3.67
2022-11-24T00:18:52.972Z,3.28
2022-11-24T00:20:25.723Z,3.33
2022-11-24T00:21:59.817Z,3.78
2022-11-24T00:23:31.608Z,3.17
2022-11-24T00:25:04.951Z,2.80
2022-11-24T00:26:38.312Z,2.90
2022-11-24T00:28:10.135Z,3.28
2022-11-24T00:29:42.847Z,3.10
2022-11-24T00:31:17.626Z,2.95
2022-11-24T00:32:50.592Z,3.45
2022-11-24T00:34:22.696Z,3.10
2022-11-24T00:35:57.042Z,3.22
2022-11-24T00:37:31.256Z,3.35
2022-11-24T00:39:05.964Z,3.38
2022-11-24T00:40:38.749Z,3.58
2022-11-24T00:42:11.469Z,3.28
2022-11-24T00:43:44.175Z,3.35
2022-11-24T00:45:16.921Z,2.75
2022-11-24T00:46:48.909Z,3.25
2022-11-24T00:48:21.901Z,2.90
2022-11-24T00:49:54.586Z,2.83
2022-11-24T00:51:30.127Z,3.72
2022-11-24T00:53:04.254Z,3.28
2022-11-24T00:54:37.002Z,3.58
2022-11-24T00:56:11.093Z,3.00
2022-11-24T00:57:43.781Z,3.15
2022-11-24T00:59:16.479Z,3.20
2022-11-24T01:00:48.286Z,3.05
2022-11-24T01:02:21.030Z,3.53
2022-11-24T01:03:55.009Z,3.33
2022-11-24T01:05:26.756Z,3.22
2022-11-24T01:06:59.480Z,2.80
2022-11-24T01:08:32.959Z,3.70
2022-11-24T01:10:06.774Z,3.17
2022-11-24T01:11:57.079Z,3.00
2022-11-24T01:13:29.802Z,3.08
2022-11-24T01:15:02.786Z,3.60
2022-11-24T01:16:38.638Z,4.10
2022-11-24T01:18:13.268Z,3.60
2022-11-24T01:19:47.078Z,3.13
2022-11-24T01:21:21.043Z,3.20
2022-11-24T01:22:52.829Z,3.47
2022-11-24T01:24:26.858Z,4.13
2022-11-24T01:25:58.574Z,3.90
2022-11-24T01:27:31.529Z,4.07
2022-11-24T01:29:04.284Z,3.95
2022-11-24T01:30:37.115Z,3.78
2022-11-24T01:32:09.904Z,3.83
2022-11-24T01:33:41.648Z,4.32
2022-11-24T01:35:14.391Z,3.58
2022-11-24T01:36:47.125Z,4.35
2022-11-24T01:38:19.022Z,4.20
2022-11-24T01:39:53.081Z,4.57
2022-11-24T01:41:26.919Z,3.55
2022-11-24T01:42:59.636Z,4.45
2022-11-24T01:44:32.787Z,4.72
2022-11-24T01:46:14.608Z,4.88
2022-11-24T01:47:47.391Z,4.53
2022-11-24T01:49:26.852Z,4.40
2022-11-24T01:51:08.283Z,4.10
2022-11-24T01:52:45.222Z,4.03
2022-11-24T01:54:25.048Z,4.43
2022-11-24T01:55:59.800Z,4.90
2022-11-24T01:57:36.752Z,4.32
2022-11-24T01:59:11.887Z,4.43
2022-11-24T02:00:46.659Z,4.45
2022-11-24T02:02:20.423Z,4.70
2022-11-24T02:03:53.646Z,4.28
2022-11-24T02:05:29.404Z,4.68
2022-11-24T02:07:04.323Z,4.75
2022-11-24T02:08:42.561Z,5.50
2022-11-24T02:10:17.495Z,4.63
2022-11-24T02:11:52.793Z,4.90
2022-11-24T02:13:25.468Z,4.97
2022-11-24T02:14:59.624Z,5.40
2022-11-24T02:16:33.503Z,5.10
2022-11-24T02:18:06.420Z,5.13
2022-11-24T02:19:48.649Z,5.30
2022-11-24T02:21:21.415Z,5.20
2022-11-24T02:22:58.115Z,5.15
2022-11-24T02:24:36.501Z,5.43
2022-11-24T02:26:14.899Z,5.75
2022-11-24T02:27:53.897Z,4.85
2022-11-24T02:29:27.072Z,5.18
2022-11-24T02:31:01.062Z,5.13
2022-11-24T02:32:34.992Z,4.97
2022-11-24T02:34:07.727Z,5.88
2022-11-24T02:35:40.932Z,5.43
2022-11-24T02:37:13.626Z,5.40
2022-11-24T02:38:46.361Z,5.38
2022-11-24T02:40:24.886Z,5.20
2022-11-24T02:42:01.977Z,5.53
2022-11-24T02:43:40.158Z,5.22
2022-11-24T02:45:15.203Z,5.20
2022-11-24T02:46:47.909Z,5.57
2022-11-24T02:48:21.549Z,5.20
2022-11-24T02:49:54.330Z,5.72
2022-11-24T02:51:27.944Z,4.90
2022-11-24T02:53:00.643Z,5.75
2022-11-24T02:54:33.736Z,5.15
2022-11-24T02:56:07.248Z,5.22
2022-11-24T02:57:39.962Z,5.20
2022-11-24T02:59:14.012Z,5.60
2022-11-24T03:00:46.886Z,5.63
2022-11-24T03:02:18.667Z,5.50
2022-11-24T03:03:51.392Z,5.60
2022-11-24T03:05:24.648Z,5.95
2022-11-24T03:06:57.578Z,5.65
2022-11-24T03:08:30.501Z,5.07
2022-11-24T03:10:02.285Z,5.35
2022-11-24T03:11:35.086Z,5.53
2022-11-24T03:13:07.839Z,5.60
2022-11-24T03:14:40.927Z,5.63
2022-11-24T03:16:13.700Z,5.85
2022-11-24T03:17:46.464Z,5.35
2022-11-24T03:19:19.188Z,5.43
2022-11-24T03:20:51.919Z,5.50
2022-11-24T03:22:24.637Z,5.15
2022-11-24T03:23:57.357Z,5.00
2022-11-24T03:25:29.159Z,5.30
2022-11-24T03:27:01.892Z,4.72
2022-11-24T03:28:33.665Z,4.60
2022-11-24T03:30:09.175Z,5.50
2022-11-24T03:31:41.976Z,4.68
2022-11-24T03:33:14.958Z,4.63
2022-11-24T03:34:47.194Z,4.97
2022-11-24T03:36:20.179Z,4.95
2022-11-24T03:37:52.878Z,5.07
2022-11-24T03:39:25.603Z,4.60
2022-11-24T03:40:58.364Z,4.70
2022-11-24T03:42:31.063Z,4.90
2022-11-24T03:44:03.890Z,4.20
2022-11-24T03:45:45.811Z,4.72
2022-11-24T03:47:19.324Z,5.03
2022-11-24T03:48:51.078Z,4.20
2022-11-24T03:50:23.805Z,4.57
2022-11-24T03:51:56.511Z,4.45
2022-11-24T03:53:31.464Z,5.32
2022-11-24T03:55:04.323Z,4.55
2022-11-24T03:56:36.109Z,4.53
2022-11-24T03:58:08.834Z,5.05
2022-11-24T03:59:42.030Z,5.10
2022-11-24T04:01:16.155Z,4.60
2022-11-24T04:02:48.194Z,5.22
2022-11-24T04:04:20.955Z,4.45
2022-11-24T04:05:53.800Z,4.80
2022-11-24T04:07:26.508Z,5.00
2022-11-24T04:09:00.751Z,5.40
2022-11-24T04:10:35.563Z,4.88
2022-11-24T04:12:25.800Z,4.95
2022-11-24T04:13:58.543Z,4.90
2022-11-24T04:15:31.303Z,5.00
2022-11-24T04:17:04.667Z,5.03
2022-11-24T04:18:37.404Z,4.60
2022-11-24T04:20:11.569Z,5.50
2022-11-24T04:21:44.646Z,6.50
2022-11-24T04:23:16.739Z,5.18
2022-11-24T04:24:49.434Z,10.55
2022-11-24T04:26:22.166Z,8.93
2022-11-24T04:27:56.471Z,5.90
2022-11-24T04:29:28.204Z,5.50
2022-11-24T04:31:03.233Z,4.97
2022-11-24T04:32:36.711Z,4.95
2022-11-24T04:34:09.424Z,6.90
2022-11-24T04:35:41.240Z,5.72
2022-11-24T04:37:13.985Z,5.68
2022-11-24T04:39:22.784Z,5.72
2022-11-24T04:40:39.409Z,7.45
2022-11-24T04:42:11.147Z,6.90
2022-11-24T04:43:43.881Z,6.72
2022-11-24T04:45:17.380Z,5.93
2022-11-24T04:46:49.357Z,6.50
2022-11-24T04:48:23.457Z,5.88
2022-11-24T04:49:56.569Z,5.50
2022-11-24T04:51:29.306Z,5.10
2022-11-24T04:53:02.018Z,5.03
2022-11-24T04:54:34.848Z,5.40
2022-11-24T04:56:08.775Z,6.82
2022-11-24T04:57:41.576Z,6.78
2022-11-24T04:59:15.665Z,6.97
2022-11-24T05:00:48.367Z,5.90
2022-11-24T05:02:21.771Z,5.93
2022-11-24T05:03:56.325Z,4.93
2022-11-24T05:05:28.214Z,5.20
2022-11-24T05:07:00.938Z,5.63
2022-11-24T05:08:33.727Z,6.10
2022-11-24T05:10:25.172Z,6.05
2022-11-24T05:11:58.038Z,6.10
2022-11-24T05:13:30.790Z,4.80
2022-11-24T05:15:05.771Z,6.68
2022-11-24T05:16:38.567Z,6.47
2022-11-24T05:18:13.460Z,6.78
2022-11-24T05:19:46.537Z,5.53
2022-11-24T05:21:19.256Z,5.40
2022-11-24T05:22:51.323Z,5.45
2022-11-24T05:24:24.078Z,5.57
2022-11-24T05:26:00.476Z,6.88
2022-11-24T05:27:32.261Z,5.30
2022-11-24T05:29:04.980Z,5.10
2022-11-24T05:30:38.411Z,4.85
2022-11-24T05:32:11.180Z,5.50
2022-11-24T05:33:44.002Z,5.00
2022-11-24T05:35:18.886Z,4.97
2022-11-24T05:36:53.259Z,5.43
2022-11-24T05:38:26.531Z,4.60
2022-11-24T05:39:58.300Z,5.05
2022-11-24T05:41:31.009Z,5.47
2022-11-24T05:43:02.790Z,4.57
2022-11-24T05:44:35.899Z,5.25
2022-11-24T05:46:08.752Z,4.97
2022-11-24T05:47:42.751Z,5.18
2022-11-24T05:49:15.476Z,4.72
2022-11-24T05:50:54.742Z,5.00
2022-11-24T05:52:27.504Z,4.13
2022-11-24T05:54:00.279Z,5.18
2022-11-24T05:55:33.560Z,4.65
2022-11-24T05:57:05.498Z,4.68
2022-11-24T05:58:38.273Z,4.40
2022-11-24T06:00:12.630Z,4.50
2022-11-24T06:01:45.464Z,5.18
2022-11-24T06:03:18.317Z,4.38
2022-11-24T06:04:51.123Z,4.07
2022-11-24T06:06:25.179Z,4.07
2022-11-24T06:07:59.606Z,4.47
2022-11-24T06:09:32.338Z,4.05
2022-11-24T06:11:18.377Z,4.40
2022-11-24T06:12:51.402Z,4.22
2022-11-24T06:14:24.245Z,4.45
2022-11-24T06:16:00.086Z,4.28
2022-11-24T06:17:32.853Z,4.07
2022-11-24T06:19:05.588Z,4.28
2022-11-24T06:20:38.328Z,3.80
2022-11-24T06:22:12.553Z,5.13
2022-11-24T06:23:48.320Z,4.30
2022-11-24T06:25:21.039Z,4.07
2022-11-24T06:26:52.949Z,4.53
2022-11-24T06:28:25.726Z,3.97
2022-11-24T06:29:58.481Z,4.28
2022-11-24T06:31:31.210Z,3.72
2022-11-24T06:33:04.432Z,3.42
2022-11-24T06:34:37.494Z,4.10
2022-11-24T06:36:14.435Z,4.80
2022-11-24T06:37:48.510Z,3.92
2022-11-24T06:39:21.231Z,3.28
2022-11-24T06:40:59.971Z,3.97
2022-11-24T06:42:32.695Z,4.03
2022-11-24T06:44:05.975Z,3.65
2022-11-24T06:45:38.793Z,3.63
2022-11-24T06:47:11.540Z,3.40
2022-11-24T06:48:44.245Z,3.47
2022-11-24T06:50:17.517Z,3.50
2022-11-24T06:51:51.251Z,2.95
2022-11-24T06:53:25.327Z,3.30
2022-11-24T06:54:58.078Z,3.53
2022-11-24T06:56:30.763Z,3.42
2022-11-24T06:58:04.123Z,2.97
2022-11-24T06:59:36.827Z,3.03
2022-11-24T07:01:10.158Z,3.25
2022-11-24T07:02:46.126Z,2.97
2022-11-24T07:04:19.087Z,2.95
2022-11-24T07:05:58.040Z,3.03
2022-11-24T07:07:30.828Z,3.15
2022-11-24T07:09:05.038Z,2.97
2022-11-24T07:10:37.973Z,3.05
2022-11-24T07:12:10.695Z,2.85
2022-11-24T07:13:43.672Z,2.80
2022-11-24T07:15:16.466Z,2.83
2022-11-24T07:16:49.487Z,2.72
2022-11-24T07:18:22.416Z,2.80
2022-11-24T07:19:55.155Z,2.83
2022-11-24T07:21:29.360Z,2.53
2022-11-24T07:23:02.066Z,2.83
2022-11-24T07:24:36.456Z,2.47
2022-11-24T07:26:11.499Z,2.50
2022-11-24T07:27:44.232Z,2.70
2022-11-24T07:29:16.976Z,2.50
2022-11-24T07:30:49.815Z,2.40
2022-11-24T07:32:22.600Z,3.15
2022-11-24T07:33:56.514Z,2.78
2022-11-24T07:35:29.997Z,2.55
2022-11-24T07:37:02.731Z,2.80
2022-11-24T07:38:36.122Z,3.10
2022-11-24T07:40:11.730Z,2.42
2022-11-24T07:41:44.488Z,2.67
2022-11-24T07:43:20.177Z,2.67
2022-11-24T07:44:53.163Z,2.42
2022-11-24T07:46:26.061Z,2.83
2022-11-24T07:47:58.810Z,2.83
2022-11-24T07:49:31.537Z,2.75
2022-11-24T07:51:05.752Z,2.80
2022-11-24T07:52:38.731Z,2.67
2022-11-24T07:54:11.808Z,3.00
2022-11-24T07:55:53.539Z,3.20
2022-11-24T07:57:26.249Z,3.25
2022-11-24T07:58:59.004Z,2.80
2022-11-24T08:00:31.714Z,2.90
2022-11-24T08:02:04.509Z,2.72
2022-11-24T08:03:37.442Z,2.50
2022-11-24T08:05:10.437Z,2.67
2022-11-24T08:06:47.182Z,2.58
2022-11-24T08:08:20.640Z,3.10
2022-11-24T08:09:55.640Z,2.70
2022-11-24T08:11:31.325Z,2.63
2022-11-24T08:13:04.055Z,2.63
2022-11-24T08:14:36.992Z,2.30
2022-11-24T08:16:12.370Z,2.50
2022-11-24T08:17:45.162Z,2.65
2022-11-24T08:19:17.966Z,2.80
2022-11-24T08:20:50.773Z,2.42
2022-11-24T08:22:23.496Z,2.63
2022-11-24T08:23:56.900Z,2.83
2022-11-24T08:25:32.027Z,2.70
2022-11-24T08:27:06.131Z,2.90
2022-11-24T08:28:39.042Z,2.55
2022-11-24T08:30:13.291Z,2.67
2022-11-24T08:31:46.029Z,2.63
2022-11-24T08:33:18.752Z,2.75
2022-11-24T08:34:52.190Z,3.10
2022-11-24T08:36:29.116Z,3.45
2022-11-24T08:38:04.787Z,2.35
2022-11-24T08:39:37.719Z,3.13
2022-11-24T08:41:12.551Z,2.45
2022-11-24T08:42:46.653Z,2.70
2022-11-24T08:44:19.422Z,3.15
2022-11-24T08:45:52.161Z,2.97
2022-11-24T08:47:24.910Z,2.67
2022-11-24T08:48:57.887Z,2.78
2022-11-24T08:50:30.625Z,2.90
2022-11-24T08:52:03.403Z,2.70
2022-11-24T08:53:36.127Z,3.00
2022-11-24T08:55:09.722Z,3.00
2022-11-24T08:56:42.643Z,2.58
2022-11-24T08:58:16.731Z,2.50
2022-11-24T08:59:49.447Z,3.60
2022-11-24T09:01:22.215Z,3.50
2022-11-24T09:02:58.947Z,3.50
2022-11-24T09:04:32.060Z,3.00
2022-11-24T09:06:05.421Z,3.83
2022-11-24T09:07:38.211Z,3.40
2022-11-24T09:09:11.818Z,3.67
2022-11-24T09:10:44.564Z,3.63
2022-11-24T09:12:17.302Z,3.40
2022-11-24T09:13:51.475Z,3.15
2022-11-24T09:15:24.191Z,3.05
2022-11-24T09:16:56.919Z,2.78
2022-11-24T09:18:30.495Z,2.63
2022-11-24T09:20:03.410Z,3.03
2022-11-24T09:21:38.840Z,2.63
2022-11-24T09:23:11.539Z,2.50
2022-11-24T09:24:44.916Z,2.70
2022-11-24T09:26:19.627Z,2.88
2022-11-24T09:27:52.358Z,3.13
2022-11-24T09:29:26.642Z,2.50
2022-11-24T09:31:02.737Z,2.80
2022-11-24T09:32:35.520Z,2.58
2022-11-24T09:34:11.850Z,2.40
2022-11-24T09:35:44.632Z,2.33
2022-11-24T09:37:17.378Z,2.78
2022-11-24T09:38:50.144Z,2.47
2022-11-24T09:40:23.744Z,2.35
2022-11-24T09:42:10.067Z,2.50
2022-11-24T09:43:50.422Z,2.75
2022-11-24T09:46:03.941Z,2.40
2022-11-24T09:47:38.076Z,2.80
2022-11-24T09:49:17.563Z,2.38
2022-11-24T09:50:53.298Z,2.53
2022-11-24T09:52:39.616Z,2.50
2022-11-24T09:54:17.317Z,2.42
2022-11-24T09:55:52.722Z,2.78
2022-11-24T09:57:35.833Z,2.65
2022-11-24T09:59:16.940Z,2.10
2022-11-24T10:00:54.387Z,2.33
2022-11-24T10:02:27.943Z,2.35
2022-11-24T10:04:06.348Z,2.35
2022-11-24T10:05:39.386Z,2.60
2022-11-24T10:07:21.980Z,2.40
2022-11-24T10:09:34.091Z,2.20
2022-11-24T10:11:13.979Z,2.60
2022-11-24T10:12:58.330Z,2.47
2022-11-24T10:14:56.265Z,2.33
2022-11-24T10:16:44.590Z,2.15
2022-11-24T10:18:41.542Z,2.30
2022-11-24T10:20:23.341Z,1.87
2022-11-24T10:22:08.735Z,2.00
2022-11-24T10:23:55.919Z,2.08
2022-11-24T10:25:39.138Z,2.57
2022-11-24T10:27:18.092Z,2.50
2022-11-24T10:28:55.452Z,2.13
2022-11-24T10:30:28.947Z,2.43
2022-11-24T10:32:07.661Z,2.43
2022-11-24T10:33:41.192Z,2.50
2022-11-24T10:35:19.874Z,2.30
2022-11-24T10:36:58.876Z,2.40
2022-11-24T10:38:36.282Z,2.67
2022-11-24T10:40:33.043Z,1.85
2022-11-24T10:42:13.461Z,2.40
2022-11-24T10:43:46.344Z,2.00
2022-11-24T10:45:22.126Z,2.10
2022-11-24T10:46:54.947Z,1.87
2022-11-24T10:48:38.187Z,1.93
2022-11-24T10:50:20.748Z,1.90
2022-11-24T10:52:06.993Z,2.57
2022-11-24T10:53:42.812Z,2.00
2022-11-24T10:55:15.651Z,1.98
2022-11-24T10:56:51.247Z,2.03
2022-11-24T10:58:26.616Z,10.40
2022-11-24T10:59:59.958Z,7.93
2022-11-24T11:01:33.881Z,4.10
2022-11-24T11:03:18.300Z,2.53
2022-11-24T11:04:52.388Z,2.37
2022-11-24T11:06:27.050Z,4.03
2022-11-24T11:08:19.741Z,2.60
2022-11-24T11:10:12.069Z,2.47
2022-11-24T11:11:46.893Z,1.90
2022-11-24T11:13:27.907Z,2.10
2022-11-24T11:15:25.707Z,2.83
2022-11-24T11:16:59.013Z,1.70
2022-11-24T11:18:34.058Z,2.10
2022-11-24T11:20:19.266Z,3.37
2022-11-24T11:22:01.151Z,1.93
2022-11-24T11:23:36.855Z,2.00
2022-11-24T11:25:25.858Z,2.00
2022-11-24T11:27:03.007Z,2.10
2022-11-24T11:28:35.909Z,1.90
2022-11-24T11:34:25.285Z,1.80
2022-11-24T11:36:08.497Z,1.60
2022-11-24T11:37:41.788Z,1.70
2022-11-24T11:39:24.953Z,2.43
2022-11-24T11:40:57.914Z,1.80
2022-11-24T11:43:02.422Z,1.57
2022-11-24T11:44:40.452Z,1.50
2022-11-24T11:46:15.525Z,1.87
2022-11-24T11:47:53.898Z,1.93
2022-11-24T11:49:26.680Z,1.80
2022-11-24T11:51:22.881Z,1.80
2022-11-24T11:53:05.118Z,2.10
2022-11-24T11:55:01.051Z,2.07
2022-11-24T11:56:40.280Z,1.80
2022-11-24T11:58:41.564Z,2.10
2022-11-24T12:00:18.711Z,1.80
2022-11-24T12:02:25.417Z,1.90
2022-11-24T12:04:05.341Z,1.83
2022-11-24T12:05:48.516Z,1.70
2022-11-24T12:07:49.316Z,1.73
2022-11-24T12:09:30.921Z,2.13
2022-11-24T12:11:09.720Z,1.70
2022-11-24T12:13:17.931Z,1.60
2022-11-24T12:15:05.838Z,1.77
2022-11-24T12:16:48.807Z,1.57
2022-11-24T12:18:56.684Z,1.60
2022-11-24T12:20:43.335Z,1.53
2022-11-24T12:22:27.084Z,1.67
2022-11-24T12:24:11.517Z,2.03
2022-11-24T12:25:48.866Z,1.60
2022-11-24T12:27:34.100Z,1.60
2022-11-24T12:29:26.678Z,1.90
2022-11-24T12:31:06.440Z,1.87
2022-11-24T12:33:04.818Z,1.80
2022-11-24T12:34:49.252Z,1.70
2022-11-24T12:36:41.706Z,1.97
2022-11-24T12:38:28.756Z,1.63
2022-11-24T12:40:14.856Z,1.77
2022-11-24T12:42:01.082Z,1.63
2022-11-24T12:43:36.726Z,1.63
2022-11-24T12:45:16.079Z,1.80
2022-11-24T12:46:54.801Z,1.90
2022-11-24T12:48:39.180Z,2.10
2022-11-24T12:50:16.727Z,1.80
2022-11-24T12:51:57.569Z,1.80
2022-11-24T12:53:33.866Z,2.20
2022-11-24T12:55:15.036Z,1.80
2022-11-24T12:56:53.368Z,1.90
2022-11-24T12:58:33.369Z,1.80
2022-11-24T13:00:16.150Z,1.67
2022-11-24T13:01:54.497Z,1.80
2022-11-24T13:03:39.675Z,1.93
2022-11-24T13:05:23.015Z,2.00
2022-11-24T13:07:01.000Z,1.70
2022-11-24T13:08:36.614Z,1.80
2022-11-24T13:10:54.193Z,2.20
2022-11-24T13:12:23.492Z,1.47
2022-11-24T13:13:59.729Z,2.23
2022-11-24T13:15:45.672Z,1.57
2022-11-24T13:17:38.299Z,1.80
2022-11-24T13:19:20.472Z,1.57
2022-11-24T13:20:53.206Z,1.73
2022-11-24T13:22:27.182Z,1.90
2022-11-24T13:24:02.230Z,1.80
2022-11-24T13:25:37.298Z,1.70
2022-11-24T13:27:40.760Z,1.77
2022-11-24T13:29:33.468Z,1.97
2022-11-24T13:31:12.283Z,1.80
2022-11-24T13:32:48.128Z,1.67
2022-11-24T13:35:03.811Z,1.77
2022-11-24T13:36:55.994Z,2.00
2022-11-24T13:38:54.240Z,1.60
2022-11-24T13:40:59.639Z,2.10
2022-11-24T13:43:16.059Z,1.53
2022-11-24T13:44:54.924Z,1.70
2022-11-24T13:47:05.702Z,1.67
2022-11-24T13:49:00.858Z,2.03
2022-11-24T13:51:09.880Z,1.93
2022-11-24T13:52:49.376Z,1.53
2022-11-24T13:54:24.567Z,1.90
2022-11-24T13:56:00.340Z,1.70
2022-11-24T13:57:37.255Z,1.87
2022-11-24T13:59:18.667Z,1.90
2022-11-24T14:01:18.867Z,2.10
2022-11-24T14:02:53.244Z,2.13
2022-11-24T14:06:29.586Z,2.10
2022-11-24T14:08:03.379Z,2.10
2022-11-24T14:09:42.639Z,2.40
2022-11-24T14:11:17.640Z,2.28
2022-11-24T14:13:25.018Z,2.37
2022-11-24T14:15:24.414Z,2.47
2022-11-24T14:17:17.000Z,2.10
2022-11-24T14:18:51.230Z,2.13
2022-11-24T14:20:25.728Z,2.50
2022-11-24T14:21:58.499Z,2.10
2022-11-24T14:23:32.600Z,2.00
2022-11-24T14:25:05.899Z,2.10
2022-11-24T14:26:40.489Z,2.40
2022-11-24T14:28:20.850Z,2.30
2022-11-24T14:29:58.362Z,2.70
2022-11-24T14:31:31.065Z,2.30
2022-11-24T14:33:12.128Z,2.50
2022-11-24T14:34:44.873Z,2.00
2022-11-24T14:36:18.867Z,2.27
2022-11-24T14:37:51.682Z,3.47
2022-11-24T14:39:26.242Z,3.80
2022-11-24T14:41:17.099Z,3.30
2022-11-24T14:42:51.312Z,3.03
2022-11-24T14:44:26.101Z,2.58
2022-11-24T14:46:01.343Z,2.23
2022-11-24T14:47:36.675Z,2.07
2022-11-24T14:49:11.199Z,2.47
2022-11-24T14:50:44.426Z,2.10
2022-11-24T14:52:20.108Z,2.00
2022-11-24T14:53:54.798Z,2.63
2022-11-24T14:55:29.488Z,2.20
2022-11-24T14:57:05.043Z,2.10
2022-11-24T14:58:42.218Z,2.43
2022-11-24T15:00:20.276Z,2.20
2022-11-24T15:01:53.268Z,2.97
2022-11-24T15:03:26.015Z,1.92
2022-11-24T15:05:04.086Z,2.42
2022-11-24T15:06:37.290Z,2.20
2022-11-24T15:08:15.352Z,2.35
2022-11-24T15:09:53.263Z,2.47
2022-11-24T15:11:26.013Z,2.95
2022-11-24T15:13:00.730Z,2.80
2022-11-24T15:14:39.724Z,2.63
2022-11-24T15:16:19.364Z,2.90
2022-11-24T15:17:54.566Z,2.50
2022-11-24T15:19:33.284Z,2.33
2022-11-24T15:21:07.728Z,2.60
2022-11-24T15:22:42.472Z,2.70
2022-11-24T15:24:17.759Z,2.53
2022-11-24T15:25:51.201Z,2.50
2022-11-24T15:27:23.912Z,2.38
2022-11-24T15:28:56.608Z,2.70
2022-11-24T15:30:30.248Z,2.00
2022-11-24T15:32:03.024Z,2.10
2022-11-24T15:33:35.813Z,2.55
2022-11-24T15:35:12.321Z,2.20
2022-11-24T15:36:46.367Z,2.55
2022-11-24T15:38:19.399Z,2.05
2022-11-24T15:39:52.115Z,2.70
2022-11-24T15:41:29.663Z,2.75
2022-11-24T15:43:06.475Z,2.10
2022-11-24T15:44:39.407Z,2.70
2022-11-24T15:46:12.293Z,2.53
2022-11-24T15:47:45.101Z,2.75
2022-11-24T15:49:17.821Z,2.40
2022-11-24T15:50:51.074Z,2.10
2022-11-24T15:52:25.327Z,2.55
2022-11-24T15:54:01.127Z,2.60
2022-11-24T15:55:34.300Z,2.33
2022-11-24T15:57:07.040Z,2.90
2022-11-24T15:58:39.722Z,2.22
2022-11-24T16:00:16.380Z,2.50
2022-11-24T16:01:50.443Z,2.53
2022-11-24T16:03:46.496Z,2.33
2022-11-24T16:05:17.433Z,2.50
2022-11-24T16:06:50.147Z,2.75
2022-11-24T16:08:24.401Z,3.03
2022-11-24T16:09:57.112Z,4.60
2022-11-24T16:11:29.811Z,4.82
2022-11-24T16:13:02.529Z,6.55
2022-11-24T16:14:36.048Z,7.63
2022-11-24T16:16:09.313Z,5.50
2022-11-24T16:17:42.058Z,9.88
2022-11-24T16:19:15.763Z,13.55
2022-11-24T16:20:48.497Z,12.85
2022-11-24T16:22:21.218Z,13.57
2022-11-24T16:23:55.689Z,9.43
2022-11-24T16:25:28.416Z,8.48
2022-11-24T16:27:01.156Z,5.90
2022-11-24T16:28:33.903Z,4.30
2022-11-24T16:30:08.460Z,3.28
2022-11-24T16:31:43.362Z,3.17
2022-11-24T16:33:16.219Z,3.58
2022-11-24T16:34:48.986Z,2.92
2022-11-24T16:36:21.730Z,3.20
2022-11-24T16:37:54.468Z,2.92
2022-11-24T16:39:28.551Z,3.20
2022-11-24T16:41:01.238Z,3.20
2022-11-24T16:42:33.970Z,3.47
2022-11-24T16:44:06.689Z,3.00
2022-11-24T16:45:45.043Z,3.10
2022-11-24T16:47:18.176Z,2.97
2022-11-24T16:48:53.574Z,3.05
2022-11-24T16:50:26.309Z,2.72
2022-11-24T16:51:59.054Z,2.67
2022-11-24T16:53:31.774Z,2.78
2022-11-24T16:55:06.683Z,3.40
2022-11-24T16:56:39.371Z,3.92
2022-11-24T16:58:12.082Z,4.20
2022-11-24T16:59:45.884Z,3.42
2022-11-24T17:01:18.845Z,3.47
2022-11-24T17:02:51.692Z,3.35
2022-11-24T17:04:24.414Z,3.30
2022-11-24T17:05:58.466Z,3.03
2022-11-24T17:07:31.258Z,3.33
2022-11-24T17:09:04.019Z,3.20
2022-11-24T17:10:40.227Z,3.47
2022-11-24T17:12:12.950Z,2.58
2022-11-24T17:13:46.974Z,2.88
2022-11-24T17:15:40.860Z,3.05
2022-11-24T17:17:12.363Z,3.05
2022-11-24T17:18:45.482Z,3.08
2022-11-24T17:20:18.203Z,2.63
2022-11-24T17:21:50.930Z,2.72
2022-11-24T17:23:23.636Z,2.90
2022-11-24T17:24:56.348Z,2.92
2022-11-24T17:26:30.391Z,2.85
2022-11-24T17:28:03.105Z,2.92
2022-11-24T17:29:35.820Z,2.80
2022-11-24T17:31:08.959Z,3.08
2022-11-24T17:32:41.707Z,2.78
2022-11-24T17:34:14.675Z,3.25
2022-11-24T17:35:47.375Z,2.78
2022-11-24T17:37:20.075Z,3.20
2022-11-24T17:38:52.791Z,3.15
2022-11-24T17:40:29.491Z,3.08
2022-11-24T17:42:04.135Z,3.75
2022-11-24T17:43:36.890Z,3.10
2022-11-24T17:45:10.208Z,2.90
2022-11-24T17:46:42.908Z,2.90
2022-11-24T17:48:15.596Z,3.17
2022-11-24T17:49:48.322Z,3.42
2022-11-24T17:51:22.539Z,3.28
2022-11-24T17:52:55.526Z,3.17
2022-11-24T17:56:23.436Z,3.10
2022-11-24T17:57:58.217Z,2.97
2022-11-24T17:59:30.931Z,3.50
2022-11-24T18:01:03.681Z,3.50
2022-11-24T18:02:38.629Z,3.67
2022-11-24T18:04:11.479Z,3.40
2022-11-24T18:05:44.181Z,3.30
2022-11-24T18:07:16.940Z,3.33
2022-11-24T18:08:49.678Z,2.88
2022-11-24T18:10:22.398Z,3.28
2022-11-24T18:11:55.083Z,3.17
2022-11-24T18:13:55.266Z,3.33
2022-11-24T18:15:23.157Z,3.33
2022-11-24T18:16:55.900Z,3.50
2022-11-24T18:18:28.899Z,3.30
2022-11-24T18:20:01.618Z,3.30
2022-11-24T18:21:34.328Z,3.65
2022-11-24T18:23:07.035Z,3.22
2022-11-24T18:24:39.969Z,2.95
2022-11-24T18:26:14.871Z,3.78
2022-11-24T18:27:47.998Z,3.75
2022-11-24T18:29:22.620Z,3.45
2022-11-24T18:31:01.533Z,4.00
2022-11-24T18:32:34.283Z,3.28
2022-11-24T18:34:07.322Z,3.50
2022-11-24T18:35:40.210Z,3.35
2022-11-24T18:37:14.731Z,3.88
2022-11-24T18:38:47.454Z,3.95
2022-11-24T18:40:20.343Z,3.78
2022-11-24T18:41:53.136Z,4.20
2022-11-24T18:43:29.148Z,4.15
2022-11-24T18:45:04.226Z,4.25
2022-11-24T18:46:37.735Z,4.03
2022-11-24T18:48:10.484Z,4.00
2022-11-24T18:49:43.246Z,3.65
2022-11-24T18:51:15.969Z,3.78
2022-11-24T18:52:48.822Z,3.75
2022-11-24T18:54:21.529Z,4.30
2022-11-24T18:55:58.673Z,4.65
2022-11-24T18:57:31.691Z,4.53
2022-11-24T18:59:04.388Z,4.13
2022-11-24T19:00:38.519Z,4.50
2022-11-24T19:02:12.163Z,4.68
2022-11-24T19:03:48.967Z,4.82
2022-11-24T19:05:22.083Z,4.43
2022-11-24T19:06:54.791Z,4.45
2022-11-24T19:08:27.507Z,3.92
2022-11-24T19:10:00.265Z,3.88
2022-11-24T19:11:35.544Z,4.18
2022-11-24T19:13:08.302Z,4.28
2022-11-24T19:14:41.300Z,4.15
2022-11-24T19:16:15.816Z,3.65
2022-11-24T19:17:48.538Z,3.75
2022-11-24T19:19:21.312Z,4.60
2022-11-24T19:20:57.260Z,4.53
2022-11-24T19:22:30.151Z,4.13
2022-11-24T19:24:05.332Z,3.95
2022-11-24T19:25:38.563Z,3.45
2022-11-24T19:27:11.309Z,3.53
2022-11-24T19:28:44.017Z,3.00
2022-11-24T19:30:17.390Z,3.47
2022-11-24T19:31:51.533Z,3.38
2022-11-24T19:33:24.323Z,2.63
2022-11-24T19:34:57.029Z,3.72
2022-11-24T19:36:29.855Z,3.45
2022-11-24T19:38:02.810Z,3.70
2022-11-24T19:39:35.522Z,3.95
2022-11-24T19:41:10.660Z,3.75
2022-11-24T19:42:43.358Z,3.80
2022-11-24T19:44:16.155Z,3.42
2022-11-24T19:45:48.908Z,4.00
2022-11-24T19:47:22.967Z,4.38
2022-11-24T19:48:57.315Z,3.72
2022-11-24T19:50:30.103Z,3.22
2022-11-24T19:52:02.881Z,3.35
2022-11-24T19:53:36.370Z,3.67
2022-11-24T19:55:09.860Z,3.78
2022-11-24T19:56:42.781Z,4.53
2022-11-24T19:58:15.531Z,3.45
2022-11-24T19:59:48.645Z,3.50
2022-11-24T20:01:22.834Z,3.28
2022-11-24T20:02:56.964Z,3.45
2022-11-24T20:04:30.191Z,2.90
2022-11-24T20:06:02.732Z,3.45
2022-11-24T20:07:35.559Z,3.00
2022-11-24T20:09:11.969Z,3.38
2022-11-24T20:10:44.706Z,3.40
2022-11-24T20:12:17.433Z,3.55
2022-11-24T20:13:51.589Z,3.22
2022-11-24T20:15:24.370Z,3.10
2022-11-24T20:16:57.133Z,3.00
2022-11-24T20:18:37.525Z,3.60
2022-11-24T20:20:14.657Z,3.40
2022-11-24T20:21:49.284Z,2.88
2022-11-24T20:23:21.995Z,3.20
2022-11-24T20:24:54.744Z,3.25
2022-11-24T20:26:30.107Z,3.40
2022-11-24T20:28:02.823Z,3.50
2022-11-24T20:29:35.778Z,3.85
2022-11-24T20:31:10.622Z,3.50
2022-11-24T20:32:43.370Z,3.42
2022-11-24T20:34:18.335Z,3.45
2022-11-24T20:35:51.061Z,3.55
2022-11-24T20:37:23.795Z,3.60
2022-11-24T20:38:57.188Z,3.72
2022-11-24T20:40:30.498Z,3.80
2022-11-24T20:42:03.250Z,3.50
2022-11-24T20:43:36.657Z,4.50
2022-11-24T20:45:09.772Z,4.50
2022-11-24T20:46:44.988Z,3.97
2022-11-24T20:48:17.898Z,4.32
2022-11-24T20:49:51.963Z,4.25
2022-11-24T20:51:26.863Z,4.60
2022-11-24T20:52:59.616Z,5.15
2022-11-24T20:54:32.546Z,5.28
2022-11-24T20:56:07.577Z,5.45
2022-11-24T20:57:40.594Z,5.30
2022-11-24T20:59:15.982Z,4.63
2022-11-24T21:00:48.769Z,5.10
2022-11-24T21:02:21.598Z,5.47
2022-11-24T21:03:56.260Z,5.63
2022-11-24T21:05:30.573Z,5.00
2022-11-24T21:07:03.768Z,5.47
2022-11-24T21:08:38.465Z,5.65
2022-11-24T21:10:11.583Z,4.10
2022-11-24T21:11:44.605Z,4.63
2022-11-24T21:13:17.602Z,4.40
2022-11-24T21:14:50.336Z,4.20
2022-11-24T21:16:24.938Z,4.88
2022-11-24T21:17:57.782Z,3.97
2022-11-24T21:19:30.663Z,4.82
2022-11-24T21:21:04.734Z,4.18
2022-11-24T21:22:38.923Z,4.53
2022-11-24T21:24:13.690Z,5.38